Time;durP1;ratioP1;P1;durP2;ratioP2;P2;SDS_P1;SDS_P2;PMS_P1;PMS_P2;Temp;Humidity;BMP_temperature;BMP_pressure;BME280_temperature;BME280_humidity;BME280_pressure;Samples;Min_cycle;Max_cycle;Signal;HPM_P1;HPM_P2
2022/03/12 00:00:54;;;;;;;;;;;-0.10;99.90;;;;;;5047719;28;19936;-51
2022/03/12 00:03:22;;;;;;;;;;;0.10;99.90;;;;;;5048344;28;19921;-51
2022/03/12 00:05:53;;;;;;;;;;;0.20;99.90;;;;;;5060222;28;19924;-52
2022/03/12 00:08:24;;;;;;;;;;;0.20;99.90;;;;;;5051608;28;19975;-52
2022/03/12 00:10:52;;;;;;;;;;;0.20;99.90;;;;;;5045741;28;20398;-52
2022/03/12 00:13:21;;;;;;;;;;;0.20;99.90;;;;;;5051382;28;19982;-55
2022/03/12 00:15:50;;;;;;;;;;;0.00;99.90;;;;;;5051692;28;19960;-56
2022/03/12 00:18:20;;;;;;;;;;;-0.30;99.90;;;;;;5049365;28;19948;-55
2022/03/12 00:20:48;;;;;;;;;;;-0.40;99.90;;;;;;5046839;28;19960;-57
2022/03/12 00:23:18;;;;;;;;;;;-0.50;99.90;;;;;;5052095;28;19924;-52
2022/03/12 00:25:48;;;;;;;;;;;-0.50;99.90;;;;;;5051744;28;19983;-53
2022/03/12 00:28:18;;;;;;;;;;;-0.50;99.90;;;;;;5048871;28;19951;-52
2022/03/12 00:30:49;;;;;;;;;;;-0.40;99.90;;;;;;5030217;28;19949;-55
2022/03/12 00:33:17;;;;;;;;;;;-0.40;99.90;;;;;;5046335;28;20296;-56
2022/03/12 00:35:48;;;;;;;;;;;-0.30;99.90;;;;;;5051199;28;19920;-58
2022/03/12 00:38:16;;;;;;;;;;;-0.30;99.90;;;;;;5051113;28;19920;-56
2022/03/12 00:40:43;;;;;;;;;;;-0.40;99.90;;;;;;5065264;23;20412;-56
2022/03/12 00:43:11;;;;;;;;;;;-0.40;99.90;;;;;;5067877;28;19920;-54
2022/03/12 00:45:40;;;;;;;;;;;-0.40;99.90;;;;;;5067635;28;19924;-55
2022/03/12 00:48:06;;;;;;;;;;;-0.40;99.90;;;;;;5068182;28;20347;-52
2022/03/12 00:50:53;;;;;;;;;;;-0.40;99.90;;;;;;5062332;28;19920;-56
2022/03/12 00:53:20;;;;;;;;;;;-0.60;99.90;;;;;;5067743;28;20327;-55
2022/03/12 00:55:46;;;;;;;;;;;-0.70;99.90;;;;;;5069059;28;20754;-56
2022/03/12 00:58:13;;;;;;;;;;;-0.60;99.90;;;;;;5066419;28;19924;-57
2022/03/12 01:00:40;;;;;;;;;;;-0.60;99.90;;;;;;5070582;28;19974;-54
2022/03/12 01:03:07;;;;;;;;;;;-0.60;99.90;;;;;;5070973;28;20292;-53
2022/03/12 01:05:49;;;;;;;;;;;-0.60;99.90;;;;;;5071830;28;19921;-56
2022/03/12 01:08:17;;;;;;;;;;;-0.50;99.90;;;;;;5068780;28;20019;-54
2022/03/12 01:10:44;;;;;;;;;;;-0.60;99.90;;;;;;5070437;28;19974;-56
2022/03/12 01:13:11;;;;;;;;;;;-0.60;99.90;;;;;;5069589;28;19920;-55
2022/03/12 01:15:38;;;;;;;;;;;-0.60;99.90;;;;;;5071250;28;19921;-57
2022/03/12 01:18:13;;;;;;;;;;;-0.60;99.90;;;;;;5070356;28;19924;-55
2022/03/12 01:20:40;;;;;;;;;;;-0.70;99.90;;;;;;5069527;28;19981;-54
2022/03/12 01:23:08;;;;;;;;;;;-0.90;99.90;;;;;;5067421;28;20021;-52
2022/03/12 01:25:35;;;;;;;;;;;-0.90;99.90;;;;;;5069719;28;20281;-53
2022/03/12 01:28:02;;;;;;;;;;;-0.90;99.90;;;;;;5067131;28;20107;-55
2022/03/12 01:30:30;;;;;;;;;;;-0.90;99.90;;;;;;5069963;28;20426;-57
2022/03/12 01:32:57;;;;;;;;;;;-0.90;99.90;;;;;;5068311;28;19931;-57
2022/03/12 01:35:24;;;;;;;;;;;-0.80;99.90;;;;;;5070359;28;19920;-56
2022/03/12 01:37:51;;;;;;;;;;;-0.70;99.90;;;;;;5067254;28;19920;-55
2022/03/12 01:40:18;;;;;;;;;;;-0.70;99.90;;;;;;5070855;28;19920;-55
2022/03/12 01:42:45;;;;;;;;;;;-0.70;99.90;;;;;;5064845;28;19927;-55
2022/03/12 01:45:13;;;;;;;;;;;-0.90;99.90;;;;;;5066243;28;19925;-57
2022/03/12 01:47:40;;;;;;;;;;;-0.90;99.90;;;;;;5066837;28;19920;-57
2022/03/12 01:50:08;;;;;;;;;;;-0.90;99.90;;;;;;5069212;28;20343;-54
2022/03/12 01:52:34;;;;;;;;;;;-0.80;99.90;;;;;;5068270;28;19920;-54
2022/03/12 01:55:05;;;;;;;;;;;-0.80;99.90;;;;;;5071186;28;20005;-55
2022/03/12 01:57:33;;;;;;;;;;;-0.80;99.90;;;;;;5072012;28;19920;-51
2022/03/12 02:00:05;;;;;;;;;;;-0.80;99.90;;;;;;5062304;28;19936;-53
2022/03/12 02:02:40;;;;;;;;;;;-0.70;99.90;;;;;;5063323;28;19924;-54
2022/03/12 02:05:08;;;;;;;;;;;-0.60;99.90;;;;;;5071270;28;20010;-54
2022/03/12 02:07:35;;;;;;;;;;;-0.70;99.90;;;;;;5066713;28;19975;-51
2022/03/12 02:10:06;;;;;;;;;;;-0.80;99.90;;;;;;5068586;28;19974;-56
2022/03/12 02:13:13;;;;;;;;;;;-0.80;99.90;;;;;;5063107;28;19928;-55
2022/03/12 02:15:41;;;;;;;;;;;-0.70;99.90;;;;;;5070760;28;19921;-54
2022/03/12 02:18:08;;;;;;;;;;;-0.60;99.90;;;;;;5065082;28;19948;-55
2022/03/12 02:20:38;;;;;;;;;;;-0.60;99.90;;;;;;5069535;28;20416;-55
2022/03/12 02:23:07;;;;;;;;;;;-0.70;99.90;;;;;;5068435;28;20379;-54
2022/03/12 02:25:34;;;;;;;;;;;-0.60;99.90;;;;;;5071627;28;19924;-55
2022/03/12 02:28:05;;;;;;;;;;;-0.70;99.90;;;;;;5071495;28;20018;-56
2022/03/12 02:30:37;;;;;;;;;;;-0.70;99.90;;;;;;5071718;28;20473;-56
2022/03/12 02:33:04;;;;;;;;;;;-0.60;99.90;;;;;;5068739;28;19955;-54
2022/03/12 02:35:35;;;;;;;;;;;-0.60;99.90;;;;;;5071649;28;19920;-55
2022/03/12 02:38:03;;;;;;;;;;;-0.60;99.90;;;;;;5069110;28;19928;-52
2022/03/12 02:40:32;;;;;;;;;;;-0.70;99.90;;;;;;5085853;22;19927;-52
2022/03/12 02:43:00;;;;;;;;;;;-0.70;99.90;;;;;;5070805;28;19974;-54
2022/03/12 02:45:29;;;;;;;;;;;-0.60;99.90;;;;;;5071185;28;19920;-56
2022/03/12 02:47:56;;;;;;;;;;;-0.70;99.90;;;;;;5071414;28;19968;-52
2022/03/12 02:50:23;;;;;;;;;;;-0.80;99.90;;;;;;5065205;28;19994;-54
2022/03/12 02:52:53;;;;;;;;;;;-0.70;99.90;;;;;;5075789;28;20529;-56
2022/03/12 02:55:22;;;;;;;;;;;-0.70;99.90;;;;;;5069876;28;20442;-56
2022/03/12 02:57:50;;;;;;;;;;;-0.70;99.90;;;;;;5065323;28;19935;-57
2022/03/12 03:00:18;;;;;;;;;;;-0.70;99.90;;;;;;5070807;28;19924;-57
2022/03/12 03:02:53;;;;;;;;;;;-0.70;99.90;;;;;;5064999;28;19920;-56
2022/03/12 03:05:54;;;;;;;;;;;-0.70;99.90;;;;;;5071030;28;19959;-58
2022/03/12 03:08:22;;;;;;;;;;;-0.70;99.90;;;;;;5051957;28;20415;-58
2022/03/12 03:10:50;;;;;;;;;;;-0.70;99.90;;;;;;5065691;28;19920;-56
2022/03/12 03:13:17;;;;;;;;;;;-0.70;99.90;;;;;;5079149;28;19920;-58
2022/03/12 03:15:46;;;;;;;;;;;-0.70;99.90;;;;;;5072187;28;19921;-57
2022/03/12 03:18:16;;;;;;;;;;;-0.70;99.90;;;;;;5072017;28;20450;-57
2022/03/12 03:20:43;;;;;;;;;;;-0.70;99.90;;;;;;5073142;28;19920;-58
2022/03/12 03:23:10;;;;;;;;;;;-0.70;99.90;;;;;;5070947;28;19977;-57
2022/03/12 03:25:37;;;;;;;;;;;-0.70;99.90;;;;;;5074906;28;19943;-58
2022/03/12 03:28:06;;;;;;;;;;;-0.70;99.90;;;;;;5074614;28;20014;-59
2022/03/12 03:30:36;;;;;;;;;;;-0.70;99.90;;;;;;5066166;28;19967;-56
2022/03/12 03:33:06;;;;;;;;;;;-0.80;99.90;;;;;;5073878;28;19925;-57
2022/03/12 03:35:33;;;;;;;;;;;-0.80;99.90;;;;;;5074733;28;19931;-59
2022/03/12 03:38:04;;;;;;;;;;;-0.70;99.90;;;;;;5073107;28;20028;-58
2022/03/12 03:40:31;;;;;;;;;;;-0.80;99.90;;;;;;5073879;28;19924;-56
2022/03/12 03:42:58;;;;;;;;;;;-0.80;99.90;;;;;;5074542;28;20595;-57
2022/03/12 03:45:37;;;;;;;;;;;-0.80;99.90;;;;;;5074670;28;19997;-58
2022/03/12 03:48:04;;;;;;;;;;;-0.70;99.90;;;;;;5072807;28;19928;-56
2022/03/12 03:50:31;;;;;;;;;;;-0.60;99.90;;;;;;5073788;28;20334;-57
2022/03/12 03:53:02;;;;;;;;;;;-0.20;99.90;;;;;;5072647;28;19920;-57
2022/03/12 03:55:29;;;;;;;;;;;-0.60;99.90;;;;;;5072249;28;20372;-57
2022/03/12 03:57:57;;;;;;;;;;;-0.50;99.90;;;;;;5072817;28;19963;-58
2022/03/12 04:00:24;;;;;;;;;;;-0.50;99.90;;;;;;5074330;28;20450;-56
2022/03/12 04:03:04;;;;;;;;;;;-0.60;99.90;;;;;;5083308;28;20384;-57
2022/03/12 04:05:32;;;;;;;;;;;-0.60;99.90;;;;;;5082281;28;19954;-58
2022/03/12 04:08:00;;;;;;;;;;;-0.60;99.90;;;;;;5073595;28;19924;-58
2022/03/12 04:10:28;;;;;;;;;;;-0.50;99.90;;;;;;5073805;28;19947;-58
2022/03/12 04:12:57;;;;;;;;;;;-0.60;99.90;;;;;;5073881;28;19974;-58
2022/03/12 04:15:24;;;;;;;;;;;-0.70;99.90;;;;;;5066703;28;20023;-56
2022/03/12 04:17:53;;;;;;;;;;;-0.80;99.90;;;;;;5083251;28;19927;-58
2022/03/12 04:20:21;;;;;;;;;;;-0.80;99.90;;;;;;5092627;28;19931;-56
2022/03/12 04:22:50;;;;;;;;;;;-0.80;99.90;;;;;;5087210;28;19965;-58
2022/03/12 04:25:18;;;;;;;;;;;-0.70;99.90;;;;;;5086882;28;19959;-58
2022/03/12 04:27:45;;;;;;;;;;;-0.60;99.90;;;;;;5093726;28;19980;-58
2022/03/12 04:30:13;;;;;;;;;;;-0.70;99.90;;;;;;5087223;28;20404;-57
2022/03/12 04:32:41;;;;;;;;;;;-0.70;99.90;;;;;;5066519;28;19920;-58
2022/03/12 04:35:08;;;;;;;;;;;-0.80;99.90;;;;;;5072993;28;19921;-58
2022/03/12 04:37:35;;;;;;;;;;;-0.70;99.90;;;;;;5073480;28;19978;-56
2022/03/12 04:40:10;;;;;;;;;;;-0.70;99.90;;;;;;5073165;28;19926;-59
2022/03/12 04:42:38;;;;;;;;;;;-0.70;99.90;;;;;;5072784;28;19927;-56
2022/03/12 04:45:07;;;;;;;;;;;-0.70;99.90;;;;;;5085100;28;19955;-57
2022/03/12 04:47:41;;;;;;;;;;;-0.70;99.90;;;;;;5093492;28;19963;-57
2022/03/12 04:50:08;;;;;;;;;;;-0.70;99.90;;;;;;5086018;28;19920;-56
2022/03/12 04:52:35;;;;;;;;;;;-0.70;99.90;;;;;;5085057;28;19996;-57
2022/03/12 04:55:10;;;;;;;;;;;-0.60;99.90;;;;;;5093538;28;19920;-56
2022/03/12 04:57:37;;;;;;;;;;;-0.60;99.90;;;;;;5093258;28;19924;-57
2022/03/12 05:00:04;;;;;;;;;;;-0.60;99.90;;;;;;5078159;28;19924;-57
2022/03/12 05:02:32;;;;;;;;;;;-0.60;99.90;;;;;;5080404;28;19994;-59
2022/03/12 05:04:59;;;;;;;;;;;-0.60;99.90;;;;;;5071835;28;20015;-58
2022/03/12 05:07:26;;;;;;;;;;;-0.60;99.90;;;;;;5072319;28;19924;-57
2022/03/12 05:09:56;;;;;;;;;;;-0.70;99.90;;;;;;5072151;28;19934;-57
2022/03/12 05:12:24;;;;;;;;;;;-0.70;99.90;;;;;;5072687;28;19977;-58
2022/03/12 05:15:15;;;;;;;;;;;-0.70;99.90;;;;;;5084611;28;19926;-58
2022/03/12 05:17:48;;;;;;;;;;;-0.60;99.90;;;;;;5084184;28;19928;-58
2022/03/12 05:20:23;;;;;;;;;;;-0.50;99.90;;;;;;5071808;28;19966;-57
2022/03/12 05:22:50;;;;;;;;;;;-0.60;99.90;;;;;;5067991;28;19924;-56
2022/03/12 05:25:18;;;;;;;;;;;-0.50;99.90;;;;;;5072636;28;19920;-57
2022/03/12 05:27:51;;;;;;;;;;;-0.50;99.90;;;;;;5072071;28;19928;-58
2022/03/12 05:30:18;;;;;;;;;;;-0.40;99.90;;;;;;5067703;28;20617;-57
2022/03/12 05:32:46;;;;;;;;;;;-0.40;99.90;;;;;;5070762;28;19959;-57
2022/03/12 05:35:13;;;;;;;;;;;-0.40;99.90;;;;;;5072302;28;20450;-58
2022/03/12 05:37:41;;;;;;;;;;;-0.50;99.90;;;;;;5072145;28;19920;-58
2022/03/12 05:40:09;;;;;;;;;;;-0.40;99.90;;;;;;5070793;28;19920;-57
2022/03/12 05:42:36;;;;;;;;;;;-0.40;99.90;;;;;;5071086;28;20002;-58
2022/03/12 05:45:07;;;;;;;;;;;-0.30;99.90;;;;;;5072082;28;19970;-58
2022/03/12 05:47:35;;;;;;;;;;;-0.40;99.90;;;;;;5071893;28;19974;-56
2022/03/12 05:50:03;;;;;;;;;;;-0.40;99.90;;;;;;5065662;28;20376;-57
2022/03/12 05:52:30;;;;;;;;;;;-0.30;99.90;;;;;;5084067;28;20337;-56
2022/03/12 05:54:57;;;;;;;;;;;-0.20;99.90;;;;;;5077692;28;20307;-59
2022/03/12 05:57:24;;;;;;;;;;;-0.20;99.90;;;;;;5071779;28;19924;-58
2022/03/12 05:59:51;;;;;;;;;;;-0.20;99.90;;;;;;5071133;28;19978;-58
2022/03/12 06:02:18;;;;;;;;;;;-0.20;99.90;;;;;;5072095;28;19920;-58
2022/03/12 06:04:46;;;;;;;;;;;-0.20;99.90;;;;;;5072410;28;20018;-58
2022/03/12 06:07:14;;;;;;;;;;;-0.20;99.90;;;;;;5084255;28;19950;-59
2022/03/12 06:09:41;;;;;;;;;;;-0.20;99.90;;;;;;5091464;28;19977;-58
2022/03/12 06:12:11;;;;;;;;;;;-0.30;99.90;;;;;;5084687;28;19928;-57
2022/03/12 06:14:39;;;;;;;;;;;-0.20;99.90;;;;;;5087419;28;20006;-57
2022/03/12 06:17:06;;;;;;;;;;;-0.20;99.90;;;;;;5092145;28;19950;-58
2022/03/12 06:19:33;;;;;;;;;;;-0.20;99.90;;;;;;5091595;28;20015;-58
2022/03/12 06:22:04;;;;;;;;;;;-0.20;99.90;;;;;;5076890;28;19929;-58
2022/03/12 06:24:31;;;;;;;;;;;-0.20;99.90;;;;;;5083110;28;19920;-57
2022/03/12 06:26:58;;;;;;;;;;;-0.20;99.90;;;;;;5060594;28;19920;-58
2022/03/12 06:29:25;;;;;;;;;;;-0.20;99.90;;;;;;5068011;28;20294;-57
2022/03/12 06:31:52;;;;;;;;;;;-0.20;99.90;;;;;;5063797;28;19931;-57
2022/03/12 06:34:19;;;;;;;;;;;-0.10;99.90;;;;;;5079991;28;20022;-59
2022/03/12 06:36:46;;;;;;;;;;;-0.10;99.90;;;;;;5066209;28;19946;-58
2022/03/12 06:39:13;;;;;;;;;;;-0.10;99.90;;;;;;5069653;28;19966;-58
2022/03/12 06:41:43;;;;;;;;;;;-0.10;99.90;;;;;;5071217;28;19921;-57
2022/03/12 06:44:11;;;;;;;;;;;0.00;99.90;;;;;;5065796;28;19924;-58
2022/03/12 06:46:38;;;;;;;;;;;0.20;99.90;;;;;;5071828;28;19921;-58
2022/03/12 06:49:04;;;;;;;;;;;0.10;99.90;;;;;;5077089;28;19927;-56
2022/03/12 06:51:32;;;;;;;;;;;0.10;99.90;;;;;;5095852;28;19923;-57
2022/03/12 06:53:59;;;;;;;;;;;0.20;99.90;;;;;;5079083;28;20371;-58
2022/03/12 06:56:26;;;;;;;;;;;0.20;99.90;;;;;;5073698;28;20011;-57
2022/03/12 06:58:54;;;;;;;;;;;0.30;99.90;;;;;;5074593;28;19920;-58
2022/03/12 07:01:21;;;;;;;;;;;0.40;99.90;;;;;;5066299;22;19920;-59
2022/03/12 07:03:48;;;;;;;;;;;0.40;99.90;;;;;;5052205;28;19947;-58
2022/03/12 07:06:41;;;;;;;;;;;0.50;99.90;;;;;;5053585;28;20347;-56
2022/03/12 07:09:07;;;;;;;;;;;0.60;99.90;;;;;;5042013;28;20403;-58
2022/03/12 07:11:34;;;;;;;;;;;0.70;99.90;;;;;;5054856;28;20007;-59
2022/03/12 07:14:01;;;;;;;;;;;0.70;99.90;;;;;;5054826;28;19920;-58
2022/03/12 07:16:28;;;;;;;;;;;0.80;99.90;;;;;;5053059;28;19990;-57
2022/03/12 07:18:57;;;;;;;;;;;0.90;99.90;;;;;;5053687;28;19920;-58
2022/03/12 07:21:24;;;;;;;;;;;1.10;99.90;;;;;;5054065;28;19928;-58
2022/03/12 07:23:51;;;;;;;;;;;1.30;99.90;;;;;;5054301;28;19967;-59
2022/03/12 07:26:17;;;;;;;;;;;1.50;99.90;;;;;;5035902;28;20507;-59
2022/03/12 07:28:44;;;;;;;;;;;1.70;99.90;;;;;;5054261;28;20015;-58
2022/03/12 07:31:12;;;;;;;;;;;1.80;99.90;;;;;;5054702;28;19920;-59
2022/03/12 07:33:44;;;;;;;;;;;1.90;99.90;;;;;;5054433;28;19920;-58
2022/03/12 07:36:12;;;;;;;;;;;2.10;99.90;;;;;;5048700;28;20273;-58
2022/03/12 07:38:39;;;;;;;;;;;2.20;99.90;;;;;;5054253;28;19924;-58
2022/03/12 07:41:06;;;;;;;;;;;2.30;99.90;;;;;;5052929;28;20435;-59
2022/03/12 07:43:33;;;;;;;;;;;2.40;99.90;;;;;;5054303;28;19920;-58
2022/03/12 07:46:03;;;;;;;;;;;2.50;99.90;;;;;;5054177;28;19924;-59
2022/03/12 07:48:30;;;;;;;;;;;2.60;99.90;;;;;;5049060;28;19936;-59
2022/03/12 07:51:06;;;;;;;;;;;2.70;99.90;;;;;;5053596;28;19928;-59
2022/03/12 07:53:33;;;;;;;;;;;2.70;99.90;;;;;;5054311;28;19963;-60
2022/03/12 07:56:00;;;;;;;;;;;2.90;99.90;;;;;;5054097;28;19924;-60
2022/03/12 07:58:28;;;;;;;;;;;3.00;99.90;;;;;;5052288;28;19920;-58
2022/03/12 08:00:56;;;;;;;;;;;3.10;99.90;;;;;;5053149;28;19975;-59
2022/03/12 08:03:23;;;;;;;;;;;3.30;99.90;;;;;;5054098;28;20395;-59
2022/03/12 08:05:51;;;;;;;;;;;3.30;99.90;;;;;;5053421;28;19927;-58
2022/03/12 08:08:18;;;;;;;;;;;3.40;99.90;;;;;;5046793;28;20392;-59
2022/03/12 08:13:30;;;;;;;;;;;3.60;99.90;;;;;;5053888;28;19947;-58
2022/03/12 08:15:57;;;;;;;;;;;3.70;99.90;;;;;;5051605;28;19935;-58
2022/03/12 08:18:24;;;;;;;;;;;3.70;99.90;;;;;;5053654;28;19979;-58
2022/03/12 08:20:52;;;;;;;;;;;3.70;99.90;;;;;;5053159;28;19920;-59
2022/03/12 08:23:19;;;;;;;;;;;3.80;99.90;;;;;;5053974;28;19978;-59
2022/03/12 08:25:46;;;;;;;;;;;3.90;99.90;;;;;;5047602;28;19921;-58
2022/03/12 08:28:14;;;;;;;;;;;3.90;99.90;;;;;;5053690;28;19924;-59
2022/03/12 08:30:40;;;;;;;;;;;4.10;99.90;;;;;;5052533;28;19920;-58
2022/03/12 08:33:08;;;;;;;;;;;4.20;99.90;;;;;;5045921;28;19924;-58
2022/03/12 08:35:35;;;;;;;;;;;4.30;99.90;;;;;;5053770;28;20376;-58
2022/03/12 08:38:07;;;;;;;;;;;4.40;99.90;;;;;;5053454;28;20373;-59
2022/03/12 08:40:35;;;;;;;;;;;4.60;99.90;;;;;;5066523;22;19920;-57
2022/03/12 08:43:02;;;;;;;;;;;4.80;99.90;;;;;;5052254;28;19931;-56
2022/03/12 08:45:29;;;;;;;;;;;4.80;99.90;;;;;;5053036;28;19921;-55
2022/03/12 08:47:57;;;;;;;;;;;4.90;99.90;;;;;;5053000;28;20531;-57
2022/03/12 08:50:25;;;;;;;;;;;5.10;99.90;;;;;;5048882;28;19952;-55
2022/03/12 08:52:52;;;;;;;;;;;5.20;99.90;;;;;;5050925;28;19928;-57
2022/03/12 08:55:18;;;;;;;;;;;5.30;99.90;;;;;;5053213;28;19920;-56
2022/03/12 08:57:46;;;;;;;;;;;5.40;99.90;;;;;;5053068;28;19921;-56
2022/03/12 09:00:15;;;;;;;;;;;5.50;99.90;;;;;;5049368;28;20011;-57
2022/03/12 09:02:42;;;;;;;;;;;5.50;99.90;;;;;;5053007;28;20364;-57
2022/03/12 09:05:10;;;;;;;;;;;5.70;99.90;;;;;;5052995;28;19920;-55
2022/03/12 09:07:37;;;;;;;;;;;5.80;99.90;;;;;;5049120;28;19929;-52
2022/03/12 09:10:05;;;;;;;;;;;5.90;99.90;;;;;;5051891;28;20336;-52
2022/03/12 09:12:32;;;;;;;;;;;6.10;99.90;;;;;;5052952;28;19924;-55
2022/03/12 09:14:59;;;;;;;;;;;6.20;99.90;;;;;;5052789;28;19920;-53
2022/03/12 09:17:26;;;;;;;;;;;6.30;99.70;;;;;;5044841;28;20428;-57
2022/03/12 09:19:54;;;;;;;;;;;6.50;98.50;;;;;;5052230;28;19928;-56
2022/03/12 09:22:21;;;;;;;;;;;6.70;98.20;;;;;;5052619;28;19928;-55
2022/03/12 09:24:47;;;;;;;;;;;6.80;97.80;;;;;;5052666;28;19947;-56
2022/03/12 09:27:14;;;;;;;;;;;6.90;97.30;;;;;;5051706;28;19920;-56
2022/03/12 09:29:42;;;;;;;;;;;7.10;96.90;;;;;;5051763;28;20304;-57
2022/03/12 09:32:09;;;;;;;;;;;7.20;96.20;;;;;;5051699;28;19974;-55
2022/03/12 09:34:37;;;;;;;;;;;7.40;96.20;;;;;;5048866;28;19928;-56
2022/03/12 09:37:05;;;;;;;;;;;7.70;95.10;;;;;;5050715;28;19932;-56
2022/03/12 09:39:32;;;;;;;;;;;7.70;93.80;;;;;;5051494;28;20292;-55
2022/03/12 09:42:00;;;;;;;;;;;7.90;94.10;;;;;;5050463;28;19920;-57
2022/03/12 09:44:26;;;;;;;;;;;8.00;93.30;;;;;;5045550;28;19982;-55
2022/03/12 09:46:53;;;;;;;;;;;8.10;93.30;;;;;;5050720;28;19971;-55
2022/03/12 09:49:20;;;;;;;;;;;8.20;92.80;;;;;;5051052;28;19925;-55
2022/03/12 09:51:47;;;;;;;;;;;8.40;92.70;;;;;;5051336;28;19927;-55
2022/03/12 09:54:15;;;;;;;;;;;8.50;92.00;;;;;;5049059;28;19920;-55
2022/03/12 09:56:43;;;;;;;;;;;8.60;91.70;;;;;;5051672;28;19924;-55
2022/03/12 09:59:09;;;;;;;;;;;8.80;91.80;;;;;;5051507;28;19920;-56
2022/03/12 10:01:36;;;;;;;;;;;8.80;90.00;;;;;;5047454;28;19925;-56
2022/03/12 10:04:03;;;;;;;;;;;8.90;91.00;;;;;;5050991;28;19924;-56
2022/03/12 10:06:31;;;;;;;;;;;9.00;89.60;;;;;;5052032;28;19947;-56
2022/03/12 10:09:02;;;;;;;;;;;9.10;89.00;;;;;;5051382;28;19928;-56
2022/03/12 10:11:29;;;;;;;;;;;9.10;87.80;;;;;;5046345;28;19982;-54
2022/03/12 10:13:56;;;;;;;;;;;9.30;86.00;;;;;;5050790;28;20296;-57
2022/03/12 10:16:22;;;;;;;;;;;9.40;87.70;;;;;;5051364;28;19929;-57
2022/03/12 10:18:49;;;;;;;;;;;9.60;87.40;;;;;;5047810;28;19921;-57
2022/03/12 10:21:16;;;;;;;;;;;9.70;84.80;;;;;;5051176;28;19990;-57
2022/03/12 10:23:43;;;;;;;;;;;9.80;86.00;;;;;;5048589;28;19929;-57
2022/03/12 10:26:10;;;;;;;;;;;10.00;82.00;;;;;;5048418;28;20408;-55
2022/03/12 10:28:37;;;;;;;;;;;9.90;80.60;;;;;;5050910;28;19966;-55
2022/03/12 10:31:05;;;;;;;;;;;10.10;80.60;;;;;;5050856;28;19921;-57
2022/03/12 10:33:33;;;;;;;;;;;10.10;82.30;;;;;;5048148;28;19927;-57
2022/03/12 10:36:10;;;;;;;;;;;10.20;81.30;;;;;;5050667;28;19920;-58
2022/03/12 10:38:38;;;;;;;;;;;10.30;80.60;;;;;;5051286;28;19927;-57
2022/03/12 10:41:05;;;;;;;;;;;10.30;79.80;;;;;;5049043;28;19929;-56
2022/03/12 10:43:46;;;;;;;;;;;10.40;78.90;;;;;;5051298;28;19963;-58
2022/03/12 10:46:27;;;;;;;;;;;10.50;77.80;;;;;;5051822;28;19921;-56
2022/03/12 10:48:58;;;;;;;;;;;10.70;77.50;;;;;;5050771;28;20292;-57
2022/03/12 10:51:36;;;;;;;;;;;10.80;77.20;;;;;;5045149;28;20377;-58
2022/03/12 10:54:05;;;;;;;;;;;10.80;76.60;;;;;;5051295;28;19929;-58
2022/03/12 10:56:40;;;;;;;;;;;10.90;76.40;;;;;;5051417;28;19928;-58
2022/03/12 10:59:11;;;;;;;;;;;11.00;75.20;;;;;;5050535;28;20442;-56
2022/03/12 11:01:44;;;;;;;;;;;11.00;74.40;;;;;;5046761;28;19974;-57
2022/03/12 11:04:17;;;;;;;;;;;11.10;74.40;;;;;;5031396;28;19921;-57
2022/03/12 11:06:45;;;;;;;;;;;11.10;73.80;;;;;;5031526;28;19925;-57
2022/03/12 11:09:14;;;;;;;;;;;11.20;72.90;;;;;;5033786;28;20015;-58
2022/03/12 11:11:43;;;;;;;;;;;11.20;72.00;;;;;;5050897;28;19920;-58
2022/03/12 11:14:15;;;;;;;;;;;11.30;72.40;;;;;;5051165;28;19921;-62
2022/03/12 11:16:45;;;;;;;;;;;11.50;70.40;;;;;;5050457;28;19932;-58
2022/03/12 11:19:12;;;;;;;;;;;11.50;69.70;;;;;;5047042;28;19960;-51
2022/03/12 11:21:47;;;;;;;;;;;11.60;69.30;;;;;;5050536;28;20332;-55
2022/03/12 11:24:15;;;;;;;;;;;11.80;70.60;;;;;;5051249;28;20327;-51
2022/03/12 11:26:43;;;;;;;;;;;11.90;69.30;;;;;;5049160;28;19921;-51
2022/03/12 11:29:11;;;;;;;;;;;12.00;67.90;;;;;;5051394;28;19971;-54
2022/03/12 11:31:38;;;;;;;;;;;12.00;66.80;;;;;;5054861;28;19921;-55
2022/03/12 11:34:12;;;;;;;;;;;12.00;65.40;;;;;;5054739;28;20003;-55
2022/03/12 11:36:41;;;;;;;;;;;12.00;66.60;;;;;;5046688;28;19947;-55
2022/03/12 11:39:08;;;;;;;;;;;12.10;66.40;;;;;;5054195;28;19921;-55
2022/03/12 11:41:36;;;;;;;;;;;12.20;66.60;;;;;;5053519;28;19928;-54
2022/03/12 11:44:08;;;;;;;;;;;12.20;66.10;;;;;;5052395;28;20071;-52
2022/03/12 11:46:36;;;;;;;;;;;12.40;65.00;;;;;;5052728;28;19970;-55
2022/03/12 11:49:03;;;;;;;;;;;12.50;64.10;;;;;;5052181;28;20116;-55
2022/03/12 11:51:30;;;;;;;;;;;12.50;63.70;;;;;;5053363;28;19924;-54
2022/03/12 11:53:59;;;;;;;;;;;12.60;63.30;;;;;;5053664;28;20007;-55
2022/03/12 11:56:27;;;;;;;;;;;12.60;62.20;;;;;;5052834;28;19928;-57
2022/03/12 11:58:54;;;;;;;;;;;12.60;62.90;;;;;;5052729;28;19943;-55
2022/03/12 12:01:27;;;;;;;;;;;12.70;60.80;;;;;;5049233;28;19927;-55
2022/03/12 12:03:56;;;;;;;;;;;12.80;61.00;;;;;;5053217;28;19920;-56
2022/03/12 12:06:23;;;;;;;;;;;12.90;60.00;;;;;;5052774;28;19974;-53
2022/03/12 12:08:52;;;;;;;;;;;12.90;59.50;;;;;;5052846;28;19982;-54
2022/03/12 12:11:19;;;;;;;;;;;12.90;59.90;;;;;;5050889;28;19924;-55
2022/03/12 12:13:46;;;;;;;;;;;12.90;58.70;;;;;;5053327;28;20396;-54
2022/03/12 12:16:15;;;;;;;;;;;13.00;56.70;;;;;;5053198;28;19931;-56
2022/03/12 12:18:43;;;;;;;;;;;13.10;57.10;;;;;;5051966;28;19925;-53
2022/03/12 12:21:14;;;;;;;;;;;13.20;55.70;;;;;;5052268;28;19933;-56
2022/03/12 12:23:40;;;;;;;;;;;13.30;53.90;;;;;;5052951;28;20273;-55
2022/03/12 12:26:08;;;;;;;;;;;13.40;54.20;;;;;;5051759;28;19954;-55
2022/03/12 12:28:54;;;;;;;;;;;13.40;52.10;;;;;;5048235;28;19929;-56
2022/03/12 12:31:25;;;;;;;;;;;13.40;52.00;;;;;;5051707;28;20435;-57
2022/03/12 12:33:54;;;;;;;;;;;13.50;52.30;;;;;;5052474;28;19921;-57
2022/03/12 12:36:21;;;;;;;;;;;13.40;52.00;;;;;;5051026;28;20389;-57
2022/03/12 12:39:03;;;;;;;;;;;13.40;51.60;;;;;;5051719;28;19925;-57
2022/03/12 12:41:51;;;;;;;;;;;13.40;54.00;;;;;;5049736;28;20011;-55
2022/03/12 12:44:33;;;;;;;;;;;13.50;55.30;;;;;;5050607;28;19927;-57
2022/03/12 12:47:03;;;;;;;;;;;13.50;55.60;;;;;;5052134;28;19935;-56
2022/03/12 12:49:37;;;;;;;;;;;13.50;54.10;;;;;;5050178;28;19921;-57
2022/03/12 12:52:04;;;;;;;;;;;13.50;56.70;;;;;;5050822;28;20399;-57
2022/03/12 12:54:43;;;;;;;;;;;13.50;56.50;;;;;;5052601;28;19925;-57
2022/03/12 12:57:11;;;;;;;;;;;13.50;56.50;;;;;;5052018;28;19921;-56
2022/03/12 13:01:50;;;;;;;30.40;13.48;;;13.50;59.00;;;;;;5159451;27;20123;-55
2022/03/12 13:04:45;;;;;;;26.58;13.77;;;13.60;57.00;;;;;;5158340;27;20042;-54
2022/03/12 13:07:24;;;;;;;26.88;13.43;;;13.60;56.60;;;;;;5142779;27;20042;-54
2022/03/12 13:09:56;;;;;;;26.58;13.25;;;13.60;57.30;;;;;;5160167;27;20035;-54
2022/03/12 13:12:42;;;;;;;28.08;13.75;;;13.60;57.70;;;;;;5155752;27;20487;-51
2022/03/12 13:15:14;;;;;;;29.38;13.65;;;13.50;56.60;;;;;;5162927;27;20064;-53
2022/03/12 13:17:43;;;;;;;29.95;14.70;;;13.50;56.30;;;;;;5155932;27;20053;-54
2022/03/12 13:20:41;;;;;;;31.42;14.00;;;13.60;57.70;;;;;;5149376;27;20046;-52
2022/03/12 13:23:08;;;;;;;30.83;14.00;;;13.70;58.00;;;;;;5150095;27;20035;-54
2022/03/12 13:25:52;;;;;;;;;;;13.70;59.10;;;;;;5149819;27;20125;-56
2022/03/12 13:28:35;;;;;;;28.80;12.95;;;13.80;57.30;;;;;;5149978;27;19927;-53
2022/03/12 13:31:16;;;;;;;29.60;12.95;;;13.90;56.50;;;;;;5141669;27;20107;-55
2022/03/12 13:33:45;;;;;;;26.38;13.75;;;13.90;56.40;;;;;;5149772;27;20054;-55
2022/03/12 13:36:23;;;;;;;27.45;13.13;;;13.90;56.50;;;;;;5149950;27;20226;-54
2022/03/12 13:38:52;;;;;;;27.15;14.05;;;13.90;57.30;;;;;;5146868;27;20066;-50
2022/03/12 13:41:20;;;;;;;28.67;12.40;;;13.90;56.30;;;;;;5149810;27;20468;-52
2022/03/12 13:43:49;;;;;;;24.35;12.95;;;13.90;56.00;;;;;;5149657;27;20092;-52
2022/03/12 13:46:20;;;;;;;26.00;12.63;;;13.90;56.00;;;;;;5149628;27;20047;-51
2022/03/12 13:49:02;;;;;;;26.15;13.35;;;13.90;55.90;;;;;;5148517;27;20069;-51
2022/03/12 13:51:30;;;;;;;25.67;12.15;;;14.00;57.00;;;;;;5149382;27;20510;-51
2022/03/12 13:53:59;;;;;;;24.65;11.77;;;13.90;54.30;;;;;;5151562;27;20057;-55
2022/03/12 13:56:28;;;;;;;23.10;12.55;;;14.00;52.50;;;;;;5156975;27;20035;-53
2022/03/12 13:59:15;;;;;;;23.70;13.30;;;14.00;54.40;;;;;;5155388;27;20572;-53
2022/03/12 14:01:43;;;;;;;27.65;12.77;;;14.00;56.10;;;;;;5157763;27;20038;-53
2022/03/12 14:04:28;;;;;;;27.65;12.75;;;14.00;54.70;;;;;;5138749;27;20039;-56
2022/03/12 14:07:18;;;;;;;23.67;12.43;;;14.00;55.50;;;;;;5143656;27;20100;-52
2022/03/12 14:09:46;;;;;;;24.63;12.43;;;14.10;56.50;;;;;;5152404;27;20090;-52
2022/03/12 14:12:25;;;;;;;27.70;12.77;;;14.00;55.70;;;;;;5143949;27;20459;-51
2022/03/12 14:14:59;;;;;;;27.52;12.73;;;14.00;55.30;;;;;;5149232;27;20043;-51
2022/03/12 14:17:28;;;;;;;24.30;11.65;;;13.90;55.10;;;;;;5149346;27;20063;-51
2022/03/12 14:20:25;;;;;;;26.27;12.15;;;14.00;54.60;;;;;;5141577;27;20035;-52
2022/03/12 14:22:53;;;;;;;29.35;11.80;;;14.00;53.60;;;;;;5139349;27;20043;-51
2022/03/12 14:25:40;;;;;;;24.52;11.90;;;14.00;55.80;;;;;;5154695;27;20552;-50
2022/03/12 14:28:08;;;;;;;27.23;12.27;;;14.00;55.00;;;;;;5154287;27;20066;-54